sensor_id;sensor_type;location;lat;lon;timestamp;temperature;humidity
2387;DHT22;49473;50.772;8.768;2024-03-23T00:55:02;6.00;99.90
2387;DHT22;49473;50.772;8.768;2024-03-23T00:57:28;6.00;99.90
2387;DHT22;49473;50.772;8.768;2024-03-23T00:59:54;6.00;99.90
2387;DHT22;49473;50.772;8.768;2024-03-23T01:02:20;5.90;99.90
2387;DHT22;49473;50.772;8.768;2024-03-23T01:04:47;5.90;99.90
2387;DHT22;49473;50.772;8.768;2024-03-23T01:07:13;6.10;99.90
2387;DHT22;49473;50.772;8.768;2024-03-23T01:09:40;6.20;99.90
2387;DHT22;49473;50.772;8.768;2024-03-23T01:12:07;6.20;99.90
2387;DHT22;49473;50.772;8.768;2024-03-23T01:14:34;6.20;99.90
2387;DHT22;49473;50.772;8.768;2024-03-23T01:17:01;6.30;99.90
2387;DHT22;49473;50.772;8.768;2024-03-23T01:19:28;6.40;99.90
2387;DHT22;49473;50.772;8.768;2024-03-23T01:21:54;6.50;99.90
2387;DHT22;49473;50.772;8.768;2024-03-23T01:24:20;6.60;99.90
2387;DHT22;49473;50.772;8.768;2024-03-23T01:26:46;6.60;99.90
2387;DHT22;49473;50.772;8.768;2024-03-23T01:29:14;6.60;99.90
2387;DHT22;49473;50.772;8.768;2024-03-23T01:31:40;6.70;99.90
2387;DHT22;49473;50.772;8.768;2024-03-23T01:34:06;6.80;99.90
2387;DHT22;49473;50.772;8.768;2024-03-23T01:36:33;6.80;99.90
2387;DHT22;49473;50.772;8.768;2024-03-23T01:39:00;6.90;99.90
2387;DHT22;49473;50.772;8.768;2024-03-23T01:41:25;7.00;99.90
2387;DHT22;49473;50.772;8.768;2024-03-23T01:43:55;6.90;99.90
2387;DHT22;49473;50.772;8.768;2024-03-23T01:46:22;7.00;99.90
2387;DHT22;49473;50.772;8.768;2024-03-23T01:48:49;7.10;99.90
2387;DHT22;49473;50.772;8.768;2024-03-23T01:51:15;7.10;99.90
2387;DHT22;49473;50.772;8.768;2024-03-23T01:53:42;7.20;99.90
2387;DHT22;49473;50.772;8.768;2024-03-23T01:56:08;7.20;99.90
2387;DHT22;49473;50.772;8.768;2024-03-23T01:58:35;7.20;99.90
2387;DHT22;49473;50.772;8.768;2024-03-23T02:01:01;7.30;99.90
2387;DHT22;49473;50.772;8.768;2024-03-23T02:03:29;7.30;99.90
2387;DHT22;49473;50.772;8.768;2024-03-23T02:05:54;7.40;99.90
2387;DHT22;49473;50.772;8.768;2024-03-23T02:08:23;7.30;99.90
2387;DHT22;49473;50.772;8.768;2024-03-23T02:10:49;7.30;99.90
2387;DHT22;49473;50.772;8.768;2024-03-23T02:13:16;7.30;99.90
2387;DHT22;49473;50.772;8.768;2024-03-23T02:15:42;7.40;99.90
2387;DHT22;49473;50.772;8.768;2024-03-23T02:18:10;7.40;99.90
2387;DHT22;49473;50.772;8.768;2024-03-23T02:20:37;7.40;99.90
2387;DHT22;49473;50.772;8.768;2024-03-23T02:23:10;7.40;99.90
2387;DHT22;49473;50.772;8.768;2024-03-23T02:25:38;7.50;99.90
2387;DHT22;49473;50.772;8.768;2024-03-23T02:28:05;7.40;99.90
2387;DHT22;49473;50.772;8.768;2024-03-23T02:30:31;7.30;99.90
2387;DHT22;49473;50.772;8.768;2024-03-23T02:32:57;7.30;99.90
2387;DHT22;49473;50.772;8.768;2024-03-23T02:35:23;7.30;99.90
2387;DHT22;49473;50.772;8.768;2024-03-23T02:37:51;7.50;99.90
2387;DHT22;49473;50.772;8.768;2024-03-23T02:40:19;7.50;99.90
2387;DHT22;49473;50.772;8.768;2024-03-23T02:42:46;7.50;99.90
2387;DHT22;49473;50.772;8.768;2024-03-23T02:45:12;7.40;99.90
2387;DHT22;49473;50.772;8.768;2024-03-23T02:47:39;7.50;99.90
2387;DHT22;49473;50.772;8.768;2024-03-23T02:50:05;7.60;99.90
2387;DHT22;49473;50.772;8.768;2024-03-23T02:52:32;7.60;99.90
2387;DHT22;49473;50.772;8.768;2024-03-23T02:54:58;7.50;99.90
2387;DHT22;49473;50.772;8.768;2024-03-23T02:57:26;7.60;99.90
2387;DHT22;49473;50.772;8.768;2024-03-23T02:59:52;7.50;99.90
2387;DHT22;49473;50.772;8.768;2024-03-23T03:02:19;7.50;99.90
2387;DHT22;49473;50.772;8.768;2024-03-23T03:04:45;7.30;99.90
2387;DHT22;49473;50.772;8.768;2024-03-23T03:07:12;7.30;99.90
2387;DHT22;49473;50.772;8.768;2024-03-23T03:09:38;7.30;99.90
2387;DHT22;49473;50.772;8.768;2024-03-23T03:12:05;7.40;99.90
2387;DHT22;49473;50.772;8.768;2024-03-23T03:14:32;7.20;99.90
2387;DHT22;49473;50.772;8.768;2024-03-23T03:16:59;7.10;99.90
2387;DHT22;49473;50.772;8.768;2024-03-23T03:19:24;7.00;99.90
2387;DHT22;49473;50.772;8.768;2024-03-23T03:21:51;7.00;99.90
2387;DHT22;49473;50.772;8.768;2024-03-23T03:24:17;7.10;99.90
2387;DHT22;49473;50.772;8.768;2024-03-23T03:26:44;7.20;99.90
2387;DHT22;49473;50.772;8.768;2024-03-23T03:29:10;7.00;99.90
2387;DHT22;49473;50.772;8.768;2024-03-23T03:31:38;7.00;99.90
2387;DHT22;49473;50.772;8.768;2024-03-23T03:34:04;7.10;99.90
2387;DHT22;49473;50.772;8.768;2024-03-23T03:36:31;7.20;99.90
2387;DHT22;49473;50.772;8.768;2024-03-23T03:38:57;7.20;99.90
2387;DHT22;49473;50.772;8.768;2024-03-23T03:41:23;7.20;99.90
2387;DHT22;49473;50.772;8.768;2024-03-23T03:43:49;7.20;99.90
2387;DHT22;49473;50.772;8.768;2024-03-23T03:46:16;7.10;99.90
2387;DHT22;49473;50.772;8.768;2024-03-23T03:48:43;7.10;99.90
2387;DHT22;49473;50.772;8.768;2024-03-23T03:51:10;7.10;99.90
2387;DHT22;49473;50.772;8.768;2024-03-23T03:53:36;7.00;99.90
2387;DHT22;49473;50.772;8.768;2024-03-23T03:56:03;6.90;99.90
2387;DHT22;49473;50.772;8.768;2024-03-23T03:58:29;6.80;99.90
2387;DHT22;49473;50.772;8.768;2024-03-23T04:00:55;6.70;99.90
2387;DHT22;49473;50.772;8.768;2024-03-23T04:03:21;6.70;99.90
2387;DHT22;49473;50.772;8.768;2024-03-23T04:05:51;6.60;99.90
2387;DHT22;49473;50.772;8.768;2024-03-23T04:08:17;6.60;99.90
2387;DHT22;49473;50.772;8.768;2024-03-23T04:10:44;6.60;99.90
2387;DHT22;49473;50.772;8.768;2024-03-23T04:13:11;6.60;99.90
2387;DHT22;49473;50.772;8.768;2024-03-23T04:15:38;6.40;99.90
2387;DHT22;49473;50.772;8.768;2024-03-23T04:18:04;6.40;99.90
2387;DHT22;49473;50.772;8.768;2024-03-23T04:20:30;6.40;99.90
2387;DHT22;49473;50.772;8.768;2024-03-23T04:22:59;6.40;99.90
2387;DHT22;49473;50.772;8.768;2024-03-23T04:25:25;6.40;99.90
2387;DHT22;49473;50.772;8.768;2024-03-23T04:27:51;6.40;99.90
2387;DHT22;49473;50.772;8.768;2024-03-23T04:30:18;6.30;99.90
2387;DHT22;49473;50.772;8.768;2024-03-23T04:32:44;6.30;99.90
2387;DHT22;49473;50.772;8.768;2024-03-23T04:35:11;6.30;99.90
2387;DHT22;49473;50.772;8.768;2024-03-23T04:37:37;6.30;99.90
2387;DHT22;49473;50.772;8.768;2024-03-23T04:40:08;6.20;99.90
2387;DHT22;49473;50.772;8.768;2024-03-23T04:42:35;6.20;99.90
2387;DHT22;49473;50.772;8.768;2024-03-23T04:45:02;6.10;99.90
2387;DHT22;49473;50.772;8.768;2024-03-23T04:47:29;6.10;99.90
2387;DHT22;49473;50.772;8.768;2024-03-23T04:49:55;6.00;99.90
2387;DHT22;49473;50.772;8.768;2024-03-23T04:52:22;5.90;99.90
2387;DHT22;49473;50.772;8.768;2024-03-23T04:54:50;5.90;99.90
2387;DHT22;49473;50.772;8.768;2024-03-23T04:57:17;5.90;99.90
2387;DHT22;49473;50.772;8.768;2024-03-23T04:59:44;5.90;99.90
2387;DHT22;49473;50.772;8.768;2024-03-23T05:02:09;5.90;99.90
2387;DHT22;49473;50.772;8.768;2024-03-23T05:04:36;5.80;99.90
2387;DHT22;49473;50.772;8.768;2024-03-23T05:07:02;5.80;99.90
2387;DHT22;49473;50.772;8.768;2024-03-23T05:09:29;5.80;99.90
2387;DHT22;49473;50.772;8.768;2024-03-23T05:11:56;5.80;99.90
2387;DHT22;49473;50.772;8.768;2024-03-23T05:14:24;5.90;99.90
2387;DHT22;49473;50.772;8.768;2024-03-23T05:16:50;5.90;99.90
2387;DHT22;49473;50.772;8.768;2024-03-23T05:19:16;5.90;99.90
2387;DHT22;49473;50.772;8.768;2024-03-23T05:21:42;5.90;99.90
2387;DHT22;49473;50.772;8.768;2024-03-23T05:24:09;5.90;99.90
2387;DHT22;49473;50.772;8.768;2024-03-23T05:26:35;5.90;99.90
2387;DHT22;49473;50.772;8.768;2024-03-23T05:29:02;5.90;99.90
2387;DHT22;49473;50.772;8.768;2024-03-23T05:31:30;5.90;99.90
2387;DHT22;49473;50.772;8.768;2024-03-23T05:33:57;5.80;99.90
2387;DHT22;49473;50.772;8.768;2024-03-23T05:36:23;5.90;99.90
2387;DHT22;49473;50.772;8.768;2024-03-23T05:38:50;5.90;99.90
2387;DHT22;49473;50.772;8.768;2024-03-23T05:41:16;5.90;99.90
2387;DHT22;49473;50.772;8.768;2024-03-23T05:43:43;5.70;99.90
2387;DHT22;49473;50.772;8.768;2024-03-23T05:46:08;5.60;99.90
2387;DHT22;49473;50.772;8.768;2024-03-23T05:48:37;5.50;99.90
2387;DHT22;49473;50.772;8.768;2024-03-23T05:51:03;5.40;99.90
2387;DHT22;49473;50.772;8.768;2024-03-23T05:53:30;5.40;99.90
2387;DHT22;49473;50.772;8.768;2024-03-23T05:56:00;5.30;99.90
2387;DHT22;49473;50.772;8.768;2024-03-23T05:58:29;5.30;99.90
2387;DHT22;49473;50.772;8.768;2024-03-23T06:00:57;5.30;99.90
2387;DHT22;49473;50.772;8.768;2024-03-23T06:03:24;5.20;99.90
2387;DHT22;49473;50.772;8.768;2024-03-23T06:05:52;5.30;99.90
2387;DHT22;49473;50.772;8.768;2024-03-23T06:08:19;5.30;99.90
2387;DHT22;49473;50.772;8.768;2024-03-23T06:10:45;5.40;99.90
2387;DHT22;49473;50.772;8.768;2024-03-23T06:13:12;5.40;99.90
2387;DHT22;49473;50.772;8.768;2024-03-23T06:15:38;5.30;99.90
2387;DHT22;49473;50.772;8.768;2024-03-23T06:18:05;5.30;99.90
2387;DHT22;49473;50.772;8.768;2024-03-23T06:20:32;5.30;99.90
2387;DHT22;49473;50.772;8.768;2024-03-23T06:23:00;5.30;99.90
2387;DHT22;49473;50.772;8.768;2024-03-23T06:25:26;5.40;99.90
2387;DHT22;49473;50.772;8.768;2024-03-23T06:27:52;5.30;99.90
2387;DHT22;49473;50.772;8.768;2024-03-23T06:30:18;5.30;99.90
2387;DHT22;49473;50.772;8.768;2024-03-23T06:32:45;5.40;99.90
2387;DHT22;49473;50.772;8.768;2024-03-23T06:35:11;5.40;99.90
2387;DHT22;49473;50.772;8.768;2024-03-23T06:37:37;5.40;99.90
2387;DHT22;49473;50.772;8.768;2024-03-23T06:40:07;5.40;99.90
2387;DHT22;49473;50.772;8.768;2024-03-23T06:42:35;5.40;99.90
2387;DHT22;49473;50.772;8.768;2024-03-23T06:45:01;5.40;99.90
2387;DHT22;49473;50.772;8.768;2024-03-23T06:47:28;5.50;99.90
2387;DHT22;49473;50.772;8.768;2024-03-23T06:49:55;5.50;99.90
2387;DHT22;49473;50.772;8.768;2024-03-23T06:52:20;5.50;99.90
2387;DHT22;49473;50.772;8.768;2024-03-23T06:54:47;5.60;99.90
2387;DHT22;49473;50.772;8.768;2024-03-23T06:57:14;5.60;99.90
2387;DHT22;49473;50.772;8.768;2024-03-23T06:59:41;5.60;99.90
2387;DHT22;49473;50.772;8.768;2024-03-23T07:02:07;5.70;99.90
2387;DHT22;49473;50.772;8.768;2024-03-23T07:04:34;5.70;99.90
2387;DHT22;49473;50.772;8.768;2024-03-23T07:07:00;5.90;99.90
2387;DHT22;49473;50.772;8.768;2024-03-23T07:09:27;6.00;99.90
2387;DHT22;49473;50.772;8.768;2024-03-23T07:11:53;6.10;99.90
2387;DHT22;49473;50.772;8.768;2024-03-23T07:14:22;6.10;99.90
2387;DHT22;49473;50.772;8.768;2024-03-23T07:16:49;6.30;99.90
2387;DHT22;49473;50.772;8.768;2024-03-23T07:19:17;6.20;99.90
2387;DHT22;49473;50.772;8.768;2024-03-23T07:21:42;6.30;99.90
2387;DHT22;49473;50.772;8.768;2024-03-23T07:24:09;6.30;99.90
2387;DHT22;49473;50.772;8.768;2024-03-23T07:26:36;6.40;99.90
2387;DHT22;49473;50.772;8.768;2024-03-23T07:29:04;6.30;99.90
2387;DHT22;49473;50.772;8.768;2024-03-23T07:31:31;6.20;99.90
2387;DHT22;49473;50.772;8.768;2024-03-23T07:33:58;6.20;99.90
2387;DHT22;49473;50.772;8.768;2024-03-23T07:36:24;6.20;99.90
2387;DHT22;49473;50.772;8.768;2024-03-23T07:38:51;6.20;99.90
2387;DHT22;49473;50.772;8.768;2024-03-23T07:41:18;6.20;99.90
2387;DHT22;49473;50.772;8.768;2024-03-23T07:43:45;6.20;99.90
2387;DHT22;49473;50.772;8.768;2024-03-23T07:46:11;6.20;99.90
2387;DHT22;49473;50.772;8.768;2024-03-23T07:48:39;6.00;99.90
2387;DHT22;49473;50.772;8.768;2024-03-23T07:51:08;6.00;99.90
2387;DHT22;49473;50.772;8.768;2024-03-23T07:53:36;6.10;99.90
2387;DHT22;49473;50.772;8.768;2024-03-23T07:56:05;6.20;99.90
2387;DHT22;49473;50.772;8.768;2024-03-23T07:58:32;6.30;99.90
2387;DHT22;49473;50.772;8.768;2024-03-23T08:01:04;6.30;99.90
2387;DHT22;49473;50.772;8.768;2024-03-23T08:03:33;6.30;99.90
2387;DHT22;49473;50.772;8.768;2024-03-23T08:06:08;6.30;99.90
2387;DHT22;49473;50.772;8.768;2024-03-23T08:08:35;6.30;99.90
2387;DHT22;49473;50.772;8.768;2024-03-23T08:11:01;6.30;99.90
2387;DHT22;49473;50.772;8.768;2024-03-23T08:13:28;6.40;99.90
2387;DHT22;49473;50.772;8.768;2024-03-23T08:15:56;6.40;99.90
2387;DHT22;49473;50.772;8.768;2024-03-23T08:18:23;6.40;99.90
2387;DHT22;49473;50.772;8.768;2024-03-23T08:20:55;6.50;99.90
2387;DHT22;49473;50.772;8.768;2024-03-23T08:23:24;6.50;99.90
2387;DHT22;49473;50.772;8.768;2024-03-23T08:25:50;6.50;99.90
2387;DHT22;49473;50.772;8.768;2024-03-23T08:28:17;6.50;99.90
2387;DHT22;49473;50.772;8.768;2024-03-23T08:30:43;6.40;99.90
2387;DHT22;49473;50.772;8.768;2024-03-23T08:33:10;6.20;99.90
2387;DHT22;49473;50.772;8.768;2024-03-23T08:35:36;6.20;99.90
2387;DHT22;49473;50.772;8.768;2024-03-23T08:38:03;6.20;99.90
2387;DHT22;49473;50.772;8.768;2024-03-23T08:40:30;6.20;99.90
2387;DHT22;49473;50.772;8.768;2024-03-23T08:42:56;6.30;99.90
2387;DHT22;49473;50.772;8.768;2024-03-23T08:45:23;6.40;99.90
2387;DHT22;49473;50.772;8.768;2024-03-23T08:47:50;6.50;99.90
2387;DHT22;49473;50.772;8.768;2024-03-23T08:50:16;6.50;99.90
2387;DHT22;49473;50.772;8.768;2024-03-23T08:52:43;6.50;99.90
2387;DHT22;49473;50.772;8.768;2024-03-23T08:55:09;6.40;99.90
2387;DHT22;49473;50.772;8.768;2024-03-23T08:57:37;6.50;99.90
2387;DHT22;49473;50.772;8.768;2024-03-23T09:00:03;6.40;99.90
2387;DHT22;49473;50.772;8.768;2024-03-23T09:02:31;6.40;99.90
2387;DHT22;49473;50.772;8.768;2024-03-23T09:04:57;6.40;99.90
2387;DHT22;49473;50.772;8.768;2024-03-23T09:07:29;6.40;99.90
2387;DHT22;49473;50.772;8.768;2024-03-23T09:09:55;6.50;99.90
2387;DHT22;49473;50.772;8.768;2024-03-23T09:12:22;6.50;99.90
2387;DHT22;49473;50.772;8.768;2024-03-23T09:14:49;6.50;99.90
2387;DHT22;49473;50.772;8.768;2024-03-23T09:17:16;6.60;99.90
2387;DHT22;49473;50.772;8.768;2024-03-23T09:19:43;6.90;99.90
2387;DHT22;49473;50.772;8.768;2024-03-23T09:22:10;7.20;99.90
2387;DHT22;49473;50.772;8.768;2024-03-23T09:24:36;7.30;99.90
2387;DHT22;49473;50.772;8.768;2024-03-23T09:27:03;7.80;99.90
2387;DHT22;49473;50.772;8.768;2024-03-23T09:29:29;8.70;99.90
2387;DHT22;49473;50.772;8.768;2024-03-23T09:31:57;9.80;99.90
2387;DHT22;49473;50.772;8.768;2024-03-23T09:34:23;10.30;99.90
2387;DHT22;49473;50.772;8.768;2024-03-23T09:36:51;10.20;99.90
2387;DHT22;49473;50.772;8.768;2024-03-23T09:39:17;10.70;99.90
2387;DHT22;49473;50.772;8.768;2024-03-23T09:41:43;11.70;99.90
2387;DHT22;49473;50.772;8.768;2024-03-23T09:44:09;12.60;99.90
2387;DHT22;49473;50.772;8.768;2024-03-23T09:46:36;12.70;99.90
2387;DHT22;49473;50.772;8.768;2024-03-23T09:49:05;11.80;99.90
2387;DHT22;49473;50.772;8.768;2024-03-23T09:51:35;11.20;99.90
2387;DHT22;49473;50.772;8.768;2024-03-23T09:54:01;9.60;99.90
2387;DHT22;49473;50.772;8.768;2024-03-23T09:56:28;9.30;99.90
2387;DHT22;49473;50.772;8.768;2024-03-23T09:59:00;11.20;99.90
2387;DHT22;49473;50.772;8.768;2024-03-23T10:01:27;13.50;99.90
2387;DHT22;49473;50.772;8.768;2024-03-23T10:03:54;14.00;99.90
2387;DHT22;49473;50.772;8.768;2024-03-23T10:06:23;13.50;99.90
2387;DHT22;49473;50.772;8.768;2024-03-23T10:08:50;11.90;99.90
2387;DHT22;49473;50.772;8.768;2024-03-23T10:11:17;10.20;99.90
2387;DHT22;49473;50.772;8.768;2024-03-23T10:13:43;10.60;99.90
2387;DHT22;49473;50.772;8.768;2024-03-23T10:16:12;10.90;99.90
2387;DHT22;49473;50.772;8.768;2024-03-23T10:18:38;10.80;99.90
2387;DHT22;49473;50.772;8.768;2024-03-23T10:21:09;10.40;99.90
2387;DHT22;49473;50.772;8.768;2024-03-23T10:23:39;9.90;99.90
2387;DHT22;49473;50.772;8.768;2024-03-23T10:26:13;9.70;99.90
2387;DHT22;49473;50.772;8.768;2024-03-23T10:28:53;11.40;99.90
2387;DHT22;49473;50.772;8.768;2024-03-23T10:31:22;14.00;99.90
2387;DHT22;49473;50.772;8.768;2024-03-23T10:33:48;15.40;99.90
2387;DHT22;49473;50.772;8.768;2024-03-23T10:36:15;14.00;99.90
2387;DHT22;49473;50.772;8.768;2024-03-23T10:38:44;13.00;99.90
2387;DHT22;49473;50.772;8.768;2024-03-23T10:41:11;13.50;99.90
2387;DHT22;49473;50.772;8.768;2024-03-23T10:43:37;13.80;99.90
2387;DHT22;49473;50.772;8.768;2024-03-23T10:46:05;13.60;99.90
2387;DHT22;49473;50.772;8.768;2024-03-23T10:48:31;14.20;99.90
2387;DHT22;49473;50.772;8.768;2024-03-23T10:50:58;14.10;99.90
2387;DHT22;49473;50.772;8.768;2024-03-23T10:53:26;14.80;99.90
2387;DHT22;49473;50.772;8.768;2024-03-23T10:55:55;15.10;99.90
2387;DHT22;49473;50.772;8.768;2024-03-23T10:58:26;14.50;99.90
2387;DHT22;49473;50.772;8.768;2024-03-23T11:00:54;13.10;99.90
2387;DHT22;49473;50.772;8.768;2024-03-23T11:03:33;11.40;99.90
2387;DHT22;49473;50.772;8.768;2024-03-23T11:06:00;10.30;99.90
2387;DHT22;49473;50.772;8.768;2024-03-23T11:08:34;10.60;99.90
2387;DHT22;49473;50.772;8.768;2024-03-23T11:11:21;11.40;99.90
2387;DHT22;49473;50.772;8.768;2024-03-23T11:13:48;11.70;99.90
2387;DHT22;49473;50.772;8.768;2024-03-23T11:16:25;13.50;99.90
2387;DHT22;49473;50.772;8.768;2024-03-23T11:18:54;15.70;99.90
2387;DHT22;49473;50.772;8.768;2024-03-23T11:21:51;17.20;99.90
2387;DHT22;49473;50.772;8.768;2024-03-23T11:24:17;18.70;99.90
2387;DHT22;49473;50.772;8.768;2024-03-23T11:26:45;17.40;97.60
2387;DHT22;49473;50.772;8.768;2024-03-23T11:29:12;15.60;98.50
2387;DHT22;49473;50.772;8.768;2024-03-23T11:31:45;14.50;99.90
2387;DHT22;49473;50.772;8.768;2024-03-23T11:34:11;12.90;99.90
2387;DHT22;49473;50.772;8.768;2024-03-23T11:36:38;10.10;99.90
2387;DHT22;49473;50.772;8.768;2024-03-23T11:39:12;8.50;99.90
2387;DHT22;49473;50.772;8.768;2024-03-23T11:41:50;8.20;99.90
2387;DHT22;49473;50.772;8.768;2024-03-23T11:44:17;8.80;99.90
2387;DHT22;49473;50.772;8.768;2024-03-23T11:46:44;9.30;99.90
2387;DHT22;49473;50.772;8.768;2024-03-23T11:49:20;9.60;99.90
2387;DHT22;49473;50.772;8.768;2024-03-23T11:51:48;10.80;99.90
2387;DHT22;49473;50.772;8.768;2024-03-23T11:54:14;11.50;99.90
2387;DHT22;49473;50.772;8.768;2024-03-23T11:56:54;13.10;99.90
2387;DHT22;49473;50.772;8.768;2024-03-23T11:59:31;14.20;99.90
2387;DHT22;49473;50.772;8.768;2024-03-23T12:01:58;14.60;99.90
2387;DHT22;49473;50.772;8.768;2024-03-23T12:04:26;14.70;99.90
2387;DHT22;49473;50.772;8.768;2024-03-23T12:07:14;15.40;99.90
2387;DHT22;49473;50.772;8.768;2024-03-23T12:09:40;15.60;99.90
2387;DHT22;49473;50.772;8.768;2024-03-23T12:12:12;15.60;99.90
2387;DHT22;49473;50.772;8.768;2024-03-23T12:14:40;14.80;99.90
2387;DHT22;49473;50.772;8.768;2024-03-23T12:17:10;14.10;99.90
2387;DHT22;49473;50.772;8.768;2024-03-23T12:19:37;12.70;99.90
2387;DHT22;49473;50.772;8.768;2024-03-23T12:22:04;11.70;99.90
2387;DHT22;49473;50.772;8.768;2024-03-23T12:24:30;11.30;99.90
2387;DHT22;49473;50.772;8.768;2024-03-23T12:27:00;10.90;99.90
2387;DHT22;49473;50.772;8.768;2024-03-23T12:29:29;11.00;99.90
2387;DHT22;49473;50.772;8.768;2024-03-23T12:31:58;11.30;99.90
2387;DHT22;49473;50.772;8.768;2024-03-23T12:34:24;11.60;99.90
2387;DHT22;49473;50.772;8.768;2024-03-23T12:36:51;11.70;99.90
2387;DHT22;49473;50.772;8.768;2024-03-23T12:39:17;11.20;99.90
2387;DHT22;49473;50.772;8.768;2024-03-23T12:41:44;10.10;99.90
2387;DHT22;49473;50.772;8.768;2024-03-23T12:44:10;9.20;99.90
2387;DHT22;49473;50.772;8.768;2024-03-23T12:46:38;9.40;99.90
2387;DHT22;49473;50.772;8.768;2024-03-23T12:49:04;11.10;99.90
2387;DHT22;49473;50.772;8.768;2024-03-23T12:51:31;13.10;99.90
2387;DHT22;49473;50.772;8.768;2024-03-23T12:54:03;14.60;99.90
2387;DHT22;49473;50.772;8.768;2024-03-23T12:56:30;15.80;99.90
2387;DHT22;49473;50.772;8.768;2024-03-23T12:59:11;15.80;99.90
2387;DHT22;49473;50.772;8.768;2024-03-23T13:01:41;14.80;99.90
2387;DHT22;49473;50.772;8.768;2024-03-23T13:04:07;15.90;99.90
2387;DHT22;49473;50.772;8.768;2024-03-23T13:06:42;16.90;99.90
2387;DHT22;49473;50.772;8.768;2024-03-23T13:09:13;16.20;99.20
2387;DHT22;49473;50.772;8.768;2024-03-23T13:11:40;14.10;99.90
2387;DHT22;49473;50.772;8.768;2024-03-23T13:14:05;12.20;99.90
2387;DHT22;49473;50.772;8.768;2024-03-23T13:16:32;11.40;99.90
2387;DHT22;49473;50.772;8.768;2024-03-23T13:18:59;11.20;99.90
2387;DHT22;49473;50.772;8.768;2024-03-23T13:21:26;11.80;99.90
2387;DHT22;49473;50.772;8.768;2024-03-23T13:23:52;12.40;99.90
2387;DHT22;49473;50.772;8.768;2024-03-23T13:26:20;13.00;99.90
2387;DHT22;49473;50.772;8.768;2024-03-23T13:28:46;13.70;99.90
2387;DHT22;49473;50.772;8.768;2024-03-23T13:31:13;13.40;99.90
2387;DHT22;49473;50.772;8.768;2024-03-23T13:33:39;13.30;99.90
2387;DHT22;49473;50.772;8.768;2024-03-23T13:36:09;12.30;99.90
2387;DHT22;49473;50.772;8.768;2024-03-23T13:38:35;11.00;99.90
2387;DHT22;49473;50.772;8.768;2024-03-23T13:41:02;10.00;99.90
2387;DHT22;49473;50.772;8.768;2024-03-23T13:43:29;9.30;99.90
2387;DHT22;49473;50.772;8.768;2024-03-23T13:45:57;8.90;99.90
2387;DHT22;49473;50.772;8.768;2024-03-23T13:48:25;8.50;99.90
2387;DHT22;49473;50.772;8.768;2024-03-23T13:50:58;8.30;99.90
2387;DHT22;49473;50.772;8.768;2024-03-23T13:53:25;7.70;99.90
2387;DHT22;49473;50.772;8.768;2024-03-23T13:55:52;7.50;99.90
2387;DHT22;49473;50.772;8.768;2024-03-23T13:58:18;7.00;99.90
2387;DHT22;49473;50.772;8.768;2024-03-23T14:00:45;6.60;99.90
2387;DHT22;49473;50.772;8.768;2024-03-23T14:03:11;6.50;99.90
2387;DHT22;49473;50.772;8.768;2024-03-23T14:05:39;6.50;99.90
2387;DHT22;49473;50.772;8.768;2024-03-23T14:08:06;6.70;99.90
2387;DHT22;49473;50.772;8.768;2024-03-23T14:10:34;7.20;99.90
2387;DHT22;49473;50.772;8.768;2024-03-23T14:13:01;7.50;99.90
2387;DHT22;49473;50.772;8.768;2024-03-23T14:15:28;7.70;99.90
2387;DHT22;49473;50.772;8.768;2024-03-23T14:17:55;7.80;99.90
2387;DHT22;49473;50.772;8.768;2024-03-23T14:20:23;7.80;99.90
2387;DHT22;49473;50.772;8.768;2024-03-23T14:22:50;7.70;99.90
2387;DHT22;49473;50.772;8.768;2024-03-23T14:25:16;7.30;99.90
2387;DHT22;49473;50.772;8.768;2024-03-23T14:27:45;7.10;99.90
2387;DHT22;49473;50.772;8.768;2024-03-23T14:30:13;6.70;99.90
2387;DHT22;49473;50.772;8.768;2024-03-23T14:32:39;6.80;99.90
2387;DHT22;49473;50.772;8.768;2024-03-23T14:35:07;6.90;99.90
2387;DHT22;49473;50.772;8.768;2024-03-23T14:37:36;6.90;99.90
2387;DHT22;49473;50.772;8.768;2024-03-23T14:40:03;7.00;99.90
2387;DHT22;49473;50.772;8.768;2024-03-23T14:42:30;7.00;99.90
2387;DHT22;49473;50.772;8.768;2024-03-23T14:44:58;6.70;99.90
2387;DHT22;49473;50.772;8.768;2024-03-23T14:47:24;6.80;99.90
2387;DHT22;49473;50.772;8.768;2024-03-23T14:49:50;6.90;99.90
2387;DHT22;49473;50.772;8.768;2024-03-23T14:52:16;7.30;99.90
2387;DHT22;49473;50.772;8.768;2024-03-23T14:54:44;7.40;99.90
2387;DHT22;49473;50.772;8.768;2024-03-23T14:57:10;7.50;99.90
2387;DHT22;49473;50.772;8.768;2024-03-23T14:59:36;7.60;99.90
2387;DHT22;49473;50.772;8.768;2024-03-23T15:02:05;7.70;99.90
2387;DHT22;49473;50.772;8.768;2024-03-23T15:04:32;7.50;99.90
2387;DHT22;49473;50.772;8.768;2024-03-23T15:06:58;7.50;99.90
2387;DHT22;49473;50.772;8.768;2024-03-23T15:09:24;7.50;99.90
2387;DHT22;49473;50.772;8.768;2024-03-23T15:11:50;7.70;99.90
2387;DHT22;49473;50.772;8.768;2024-03-23T15:14:17;8.00;99.90
2387;DHT22;49473;50.772;8.768;2024-03-23T15:16:43;8.20;99.90
2387;DHT22;49473;50.772;8.768;2024-03-23T15:19:11;8.20;99.90
2387;DHT22;49473;50.772;8.768;2024-03-23T15:21:36;8.10;99.90
2387;DHT22;49473;50.772;8.768;2024-03-23T15:24:04;8.40;99.90
2387;DHT22;49473;50.772;8.768;2024-03-23T15:26:31;9.20;99.90
2387;DHT22;49473;50.772;8.768;2024-03-23T15:28:58;9.80;99.90
2387;DHT22;49473;50.772;8.768;2024-03-23T15:31:38;9.90;99.90
2387;DHT22;49473;50.772;8.768;2024-03-23T15:34:05;9.90;99.90
2387;DHT22;49473;50.772;8.768;2024-03-23T15:36:36;9.90;99.90
2387;DHT22;49473;50.772;8.768;2024-03-23T15:39:04;9.50;99.90
2387;DHT22;49473;50.772;8.768;2024-03-23T15:41:30;9.20;99.90
2387;DHT22;49473;50.772;8.768;2024-03-23T15:43:57;9.00;99.90
2387;DHT22;49473;50.772;8.768;2024-03-23T15:46:24;8.80;99.90
2387;DHT22;49473;50.772;8.768;2024-03-23T15:48:51;8.60;99.90
2387;DHT22;49473;50.772;8.768;2024-03-23T15:51:17;8.40;99.90
2387;DHT22;49473;50.772;8.768;2024-03-23T15:53:45;8.10;99.90
2387;DHT22;49473;50.772;8.768;2024-03-23T15:56:11;7.90;99.90
2387;DHT22;49473;50.772;8.768;2024-03-23T15:58:38;8.00;99.90
2387;DHT22;49473;50.772;8.768;2024-03-23T16:01:07;8.00;99.90
2387;DHT22;49473;50.772;8.768;2024-03-23T16:03:36;7.90;99.90
2387;DHT22;49473;50.772;8.768;2024-03-23T16:06:04;7.80;99.90
2387;DHT22;49473;50.772;8.768;2024-03-23T16:08:31;7.70;99.90
2387;DHT22;49473;50.772;8.768;2024-03-23T16:11:01;7.50;99.90
2387;DHT22;49473;50.772;8.768;2024-03-23T16:13:28;7.40;99.90
2387;DHT22;49473;50.772;8.768;2024-03-23T16:15:55;7.20;99.90
2387;DHT22;49473;50.772;8.768;2024-03-23T16:18:22;7.20;99.90
2387;DHT22;49473;50.772;8.768;2024-03-23T16:20:54;7.10;99.90
2387;DHT22;49473;50.772;8.768;2024-03-23T16:23:21;7.10;99.90
2387;DHT22;49473;50.772;8.768;2024-03-23T16:25:48;7.10;99.90
2387;DHT22;49473;50.772;8.768;2024-03-23T16:28:24;7.10;99.90
2387;DHT22;49473;50.772;8.768;2024-03-23T16:30:57;7.10;99.90
2387;DHT22;49473;50.772;8.768;2024-03-23T16:33:24;6.70;99.90
2387;DHT22;49473;50.772;8.768;2024-03-23T16:38:25;5.30;99.90
2387;DHT22;49473;50.772;8.768;2024-03-23T16:40:59;5.10;99.90
2387;DHT22;49473;50.772;8.768;2024-03-23T16:43:28;4.80;99.90
2387;DHT22;49473;50.772;8.768;2024-03-23T16:45:55;4.70;99.90
2387;DHT22;49473;50.772;8.768;2024-03-23T16:48:23;4.50;99.90
2387;DHT22;49473;50.772;8.768;2024-03-23T16:53:16;4.30;99.90
2387;DHT22;49473;50.772;8.768;2024-03-23T16:55:42;4.20;99.90
2387;DHT22;49473;50.772;8.768;2024-03-23T16:58:09;4.20;99.90